Time;durP1;ratioP1;P1;durP2;ratioP2;P2;SDS_P1;SDS_P2;PMS_P1;PMS_P2;Temp;Humidity;BMP_temperature;BMP_pressure;BME280_temperature;BME280_humidity;BME280_pressure;Samples;Min_cycle;Max_cycle;Signal;HPM_P1;HPM_P2
2022/05/19 00:01:04;;;;;;;16.02;8.40;;;;;;;7.87;42.11;99567.69;4991907;28;20352;-72
2022/05/19 00:03:33;;;;;;;14.85;7.50;;;;;;;7.85;42.20;99558.91;4991115;28;20030;-71
2022/05/19 00:05:58;;;;;;;13.60;7.38;;;;;;;7.84;42.65;99567.38;4992095;28;20019;-72
2022/05/19 00:08:25;;;;;;;13.10;7.50;;;;;;;7.80;42.41;99558.84;4992338;28;20374;-72
2022/05/19 00:10:51;;;;;;;14.80;7.63;;;;;;;7.75;42.67;99565.06;4992000;28;20029;-71
2022/05/19 00:13:17;;;;;;;14.07;7.65;;;;;;;7.72;42.86;99564.75;4991169;28;20031;-72
2022/05/19 00:15:43;;;;;;;15.25;8.43;;;;;;;7.69;43.11;99567.97;4991645;28;20478;-72
2022/05/19 00:18:08;;;;;;;18.17;8.27;;;;;;;7.67;43.12;99562.75;4990888;28;20084;-71
2022/05/19 00:20:34;;;;;;;14.82;7.97;;;;;;;7.64;43.28;99562.44;4991339;28;20383;-71
2022/05/19 00:22:59;;;;;;;14.23;7.75;;;;;;;7.60;43.28;99559.34;4991030;28;20034;-71
2022/05/19 00:25:25;;;;;;;14.05;7.38;;;;;;;7.58;43.59;99553.31;4989962;28;20031;-71
2022/05/19 00:27:50;;;;;;;15.00;8.15;;;;;;;7.57;43.56;99557.13;4990205;28;20489;-71
2022/05/19 00:30:16;;;;;;;13.65;7.65;;;;;;;7.55;43.71;99560.13;4989211;28;20104;-72
2022/05/19 00:32:41;;;;;;;18.38;8.32;;;;;;;7.55;43.68;99551.94;4990171;28;20045;-71
2022/05/19 00:35:07;;;;;;;19.20;8.13;;;;;;;7.54;43.93;99561.19;4988510;28;20455;-72
2022/05/19 00:37:32;;;;;;;16.70;8.13;;;;;;;7.59;44.62;99560.44;4990049;28;20486;-72
2022/05/19 00:39:58;;;;;;;17.90;7.80;;;;;;;7.61;44.66;99558.28;4992266;28;20105;-72
2022/05/19 00:45:08;;;;;;;16.17;8.02;;;;;;;7.70;44.37;99559.53;4989703;28;20037;-72
2022/05/19 00:47:43;;;;;;;15.75;7.88;;;;;;;7.72;44.45;99551.91;4990583;28;20018;-72
2022/05/19 00:50:35;;;;;;;15.27;7.32;;;;;;;7.77;44.55;99553.88;4989400;28;20030;-72
2022/05/19 00:53:29;;;;;;;14.50;7.60;;;;;;;7.81;44.56;99559.69;4985582;28;20061;-72
2022/05/19 00:55:58;;;;;;;12.88;7.43;;;;;;;7.83;44.92;99560.25;4990456;28;20034;-71
2022/05/19 00:58:28;;;;;;;14.18;7.30;;;;;;;7.83;44.76;99552.06;4993441;28;20049;-72
2022/05/19 01:00:55;;;;;;;10.25;6.22;;;;;;;7.86;45.18;99557.84;4993211;28;20025;-72
2022/05/19 01:03:22;;;;;;;13.85;6.85;;;;;;;7.84;44.83;99553.72;4992229;28;20386;-71
2022/05/19 01:05:53;;;;;;;13.45;7.30;;;;;;;7.81;44.98;99560.50;4993035;28;20030;-72
2022/05/19 01:08:28;;;;;;;14.48;7.05;;;;;;;7.74;44.84;99560.69;4990416;28;20825;-71
2022/05/19 01:10:55;;;;;;;13.10;6.93;;;;;;;7.71;45.04;99563.09;4992765;28;20027;-72
2022/05/19 01:13:22;;;;;;;15.27;6.80;;;;;;;7.70;45.28;99564.16;4993016;28;20037;-71
2022/05/19 01:15:51;;;;;;;12.93;7.13;;;;;;;7.70;45.56;99556.78;4992790;28;20080;-71
2022/05/19 01:18:17;;;;;;;13.93;6.32;;;;;;;7.71;45.92;99552.97;4992712;28;20026;-72
2022/05/19 01:20:45;;;;;;;11.88;6.20;;;;;;;7.74;45.91;99557.94;4992589;28;20116;-72
2022/05/19 01:23:19;;;;;;;12.32;6.50;;;;;;;7.80;45.53;99553.38;4992462;28;20529;-72
2022/05/19 01:25:57;;;;;;;11.70;6.68;;;;;;;7.85;45.78;99553.44;4992503;28;20505;-71
2022/05/19 01:28:23;;;;;;;13.68;6.43;;;;;;;7.88;45.86;99547.50;4992302;28;20046;-71
2022/05/19 01:30:48;;;;;;;14.13;6.05;;;;;;;7.90;45.92;99544.53;4992516;28;20031;-72
2022/05/19 01:33:14;;;;;;;12.73;5.75;;;;;;;7.92;46.05;99553.28;4992536;28;20420;-71
2022/05/19 01:35:40;;;;;;;10.00;5.63;;;;;;;7.95;46.28;99541.03;4990633;28;20026;-71
2022/05/19 01:38:12;;;;;;;9.57;5.70;;;;;;;7.89;45.98;99537.41;4992464;28;20048;-72
2022/05/19 01:40:59;;;;;;;11.00;5.75;;;;;;;7.90;45.92;99544.53;4992172;28;20045;-72
2022/05/19 01:44:04;;;;;;;10.25;5.30;;;;;;;7.92;46.13;99542.38;4992092;28;20058;-72
2022/05/19 01:46:36;;;;;;;11.05;5.15;;;;;;;7.93;46.28;99541.28;4992088;28;20025;-71
2022/05/19 01:49:13;;;;;;;12.63;5.53;;;;;;;7.88;46.19;99539.28;4990836;28;20398;-71
2022/05/19 01:51:54;;;;;;;11.57;5.20;;;;;;;7.90;46.30;99541.78;4990801;28;20033;-72
2022/05/19 01:54:46;;;;;;;8.23;4.97;;;;;;;7.88;46.49;99536.56;4991955;28;20033;-71
2022/05/19 01:57:21;;;;;;;11.75;5.10;;;;;;;7.91;46.97;99532.53;4989638;28;20065;-71
2022/05/19 02:00:03;;;;;;;10.38;5.47;;;;;;;7.87;46.60;99529.44;4991534;28;20038;-71
2022/05/19 02:02:37;;;;;;;11.15;4.82;;;;;;;7.88;46.77;99536.56;4988687;28;20033;-71
2022/05/19 02:05:13;;;;;;;10.63;4.95;;;;;;;7.89;46.91;99535.50;4991236;28;20026;-72
2022/05/19 02:07:43;;;;;;;10.52;4.82;;;;;;;7.90;47.01;99536.31;4991971;28;20030;-71
2022/05/19 02:10:14;;;;;;;11.00;5.20;;;;;;;7.91;46.72;99535.25;4991890;28;20559;-72
2022/05/19 02:12:40;;;;;;;11.27;5.03;;;;;;;7.92;46.93;99533.34;4991846;28;20030;-72
2022/05/19 02:15:11;;;;;;;11.55;5.75;;;;;;;7.93;46.71;99537.72;4991152;28;20026;-72
2022/05/19 02:17:36;;;;;;;;;;;;;;;7.95;46.95;99533.63;4992202;28;20034;-72
2022/05/19 02:20:08;;;;;;;10.45;5.70;;;;;;;7.95;46.94;99536.38;4991593;28;19913;-71
2022/05/19 02:22:38;;;;;;;10.07;5.07;;;;;;;7.97;47.24;99533.41;4991554;28;20030;-71
2022/05/19 02:25:18;;;;;;;11.38;5.75;;;;;;;7.98;46.97;99533.13;4991174;28;20105;-71
2022/05/19 02:28:12;;;;;;;11.55;5.40;;;;;;;7.97;46.90;99531.47;4991576;28;20077;-72
2022/05/19 02:30:39;;;;;;;9.32;4.93;;;;;;;7.99;47.30;99523.88;4991676;28;20029;-71
2022/05/19 02:33:06;;;;;;;10.88;5.25;;;;;;;8.00;47.04;99530.97;4990173;28;20479;-72
2022/05/19 02:35:32;;;;;;;11.32;5.53;;;;;;;8.00;47.14;99533.72;4991220;28;20096;-72
2022/05/19 02:37:58;;;;;;;8.63;5.00;;;;;;;8.02;47.53;99533.47;4991377;28;20022;-72
2022/05/19 02:40:27;;;;;;;12.48;5.13;;;;;;;8.02;47.24;99530.75;4991561;28;20169;-72
2022/05/19 02:42:52;;;;;;;11.70;4.78;;;;;;;8.01;47.24;99532.63;4989803;28;20506;-72
2022/05/19 02:45:20;;;;;;;9.48;4.90;;;;;;;8.02;47.72;99537.03;4989808;28;20026;-72
2022/05/19 02:47:46;;;;;;;8.27;4.47;;;;;;;8.02;47.57;99528.00;4991785;28;20022;-71
2022/05/19 02:50:14;;;;;;;10.38;4.68;;;;;;;8.03;47.58;99535.94;4991363;28;20549;-72
2022/05/19 02:52:39;;;;;;;10.80;4.90;;;;;;;8.04;47.47;99534.88;4991325;28;20026;-72
2022/05/19 02:55:05;;;;;;;10.05;4.93;;;;;;;8.05;47.61;99535.69;4991140;28;20026;-72
2022/05/19 02:57:31;;;;;;;12.57;4.63;;;;;;;8.02;47.72;99537.03;4991457;28;20065;-72
2022/05/19 02:59:57;;;;;;;10.10;4.72;;;;;;;8.01;47.50;99529.09;4991347;28;20050;-72
2022/05/19 03:02:24;;;;;;;12.77;5.07;;;;;;;8.00;47.24;99522.78;4991175;28;20078;-72
2022/05/19 03:04:50;;;;;;;15.23;5.45;;;;;;;8.02;47.55;99530.75;4990817;28;20069;-72
2022/05/19 03:07:15;;;;;;;9.63;5.32;;;;;;;8.02;48.21;99531.56;4991605;28;20026;-72
2022/05/19 03:09:42;;;;;;;12.15;5.03;;;;;;;8.03;47.58;99537.88;4990502;28;20041;-72
2022/05/19 03:12:09;;;;;;;10.90;5.13;;;;;;;8.02;47.54;99537.03;4992424;28;20026;-72
2022/05/19 03:14:35;;;;;;;10.35;4.95;;;;;;;8.01;47.85;99529.09;4994747;28;20035;-71
2022/05/19 03:17:00;;;;;;;9.85;5.50;;;;;;;7.97;47.75;99538.88;4994586;28;20418;-72
2022/05/19 03:19:26;;;;;;;9.98;5.68;;;;;;;7.95;47.77;99530.91;4994799;28;20097;-72
2022/05/19 03:21:51;;;;;;;10.63;5.78;;;;;;;7.95;48.22;99524.63;4994443;28;20494;-72
2022/05/19 03:24:17;;;;;;;11.60;5.68;;;;;;;7.90;48.59;99530.88;4994446;28;20026;-72
2022/05/19 03:26:42;;;;;;;13.00;5.63;;;;;;;7.87;48.62;99534.91;4994672;28;20594;-72
2022/05/19 03:29:09;;;;;;;12.23;5.68;;;;;;;7.86;48.44;99535.19;4994288;28;20495;-72
2022/05/19 03:31:35;;;;;;;11.55;5.53;;;;;;;7.86;48.66;99532.44;4994663;28;20039;-72
2022/05/19 03:34:02;;;;;;;11.02;5.68;;;;;;;7.86;48.49;99525.06;4994576;28;20031;-72
2022/05/19 03:36:28;;;;;;;13.68;6.05;;;;;;;7.88;48.61;99533.03;4993047;28;20019;-72
2022/05/19 03:38:55;;;;;;;13.75;5.75;;;;;;;7.85;48.56;99531.59;4994543;28;20360;-73
2022/05/19 03:41:21;;;;;;;11.80;5.22;;;;;;;7.89;48.56;99537.41;4994809;28;20030;-72
2022/05/19 03:43:47;;;;;;;10.95;4.97;;;;;;;7.95;49.07;99533.63;4990184;28;20417;-73
2022/05/19 03:46:13;;;;;;;8.30;5.18;;;;;;;7.98;48.94;99529.59;4992879;28;20030;-72
2022/05/19 03:48:39;;;;;;;10.57;5.57;;;;;;;8.01;48.63;99529.09;4994491;28;20031;-72
2022/05/19 03:51:09;;;;;;;11.55;4.90;;;;;;;8.02;49.08;99522.56;4994415;28;20030;-72
2022/05/19 03:53:35;;;;;;;12.38;5.00;;;;;;;8.10;48.75;99534.94;4994221;28;20026;-72
2022/05/19 03:56:00;;;;;;;9.20;4.93;;;;;;;8.12;49.02;99530.88;4994118;28;20490;-73
2022/05/19 03:58:26;;;;;;;11.18;4.90;;;;;;;8.15;49.23;99537.75;4994203;28;20479;-73
2022/05/19 04:00:52;;;;;;;11.68;5.40;;;;;;;8.19;49.06;99536.16;4994567;28;20022;-73
2022/05/19 04:03:18;;;;;;;9.48;5.35;;;;;;;8.24;49.13;99536.22;4993715;28;20026;-72
2022/05/19 04:05:44;;;;;;;14.25;5.55;;;;;;;8.30;48.94;99537.09;4994102;28;20032;-73
2022/05/19 04:08:10;;;;;;;11.73;6.28;;;;;;;8.37;49.15;99534.16;4994241;28;20030;-72
2022/05/19 04:10:42;;;;;;;13.10;5.85;;;;;;;8.42;49.12;99537.81;4994450;28;20019;-73
2022/05/19 04:13:08;;;;;;;10.52;5.57;;;;;;;8.48;49.32;99533.22;4993685;28;20110;-73
2022/05/19 04:15:33;;;;;;;15.73;6.18;;;;;;;8.56;49.57;99541.00;4993668;28;20033;-72
2022/05/19 04:17:59;;;;;;;13.63;5.90;;;;;;;8.61;49.06;99545.69;4993784;28;20446;-72
2022/05/19 04:20:29;;;;;;;11.77;5.18;;;;;;;8.67;49.59;99538.38;4993564;28;20022;-72
2022/05/19 04:22:56;;;;;;;8.80;4.60;;;;;;;8.75;49.50;99540.66;4992879;28;20040;-73
2022/05/19 04:25:21;;;;;;;10.13;5.10;;;;;;;8.81;49.11;99536.88;4993169;28;20042;-72
2022/05/19 04:27:47;;;;;;;11.30;5.50;;;;;;;8.87;48.76;99538.56;4993169;28;20015;-72
2022/05/19 04:30:12;;;;;;;10.57;5.18;;;;;;;8.94;49.27;99532.91;4993590;28;20037;-72
2022/05/19 04:32:38;;;;;;;12.90;5.95;;;;;;;9.00;48.68;99539.25;4993583;28;20018;-72
2022/05/19 04:35:04;;;;;;;10.82;5.65;;;;;;;9.05;48.80;99537.38;4993114;28;20089;-72
2022/05/19 04:37:29;;;;;;;9.07;4.72;;;;;;;9.14;49.24;99529.53;4989686;28;20030;-72
2022/05/19 04:39:55;;;;;;;9.63;4.82;;;;;;;9.24;48.57;99531.53;4993440;28;20038;-72
2022/05/19 04:42:20;;;;;;;10.73;5.28;;;;;;;9.32;49.33;99532.97;4993466;28;20073;-72
2022/05/19 04:44:45;;;;;;;9.93;4.85;;;;;;;9.39;48.93;99536.31;4992713;28;20554;-72
2022/05/19 04:47:11;;;;;;;10.02;4.53;;;;;;;9.47;49.17;99533.09;4993059;28;20026;-75
2022/05/19 04:49:37;;;;;;;11.40;4.95;;;;;;;9.55;48.94;99536.44;4993330;28;20064;-73
2022/05/19 04:52:02;;;;;;;9.85;4.82;;;;;;;9.63;48.96;99530.44;4988746;28;20022;-72
2022/05/19 04:54:28;;;;;;;10.07;4.90;;;;;;;9.73;48.78;99529.69;4992874;28;20034;-73
2022/05/19 04:56:53;;;;;;;8.95;4.40;;;;;;;9.80;49.17;99531.09;4993369;28;20035;-74
2022/05/19 04:59:19;;;;;;;8.98;4.35;;;;;;;9.87;48.93;99538.28;4992049;28;20034;-71
2022/05/19 05:01:46;;;;;;;7.80;4.00;;;;;;;9.95;48.37;99543.25;4993050;28;20093;-73
2022/05/19 05:04:12;;;;;;;7.88;3.78;;;;;;;10.02;49.04;99534.78;4992346;28;20502;-72
2022/05/19 05:06:37;;;;;;;7.30;3.90;;;;;;;10.09;48.11;99541.66;4993097;28;20382;-73
2022/05/19 05:09:03;;;;;;;7.32;3.47;;;;;;;10.16;47.99;99538.72;4992952;28;20471;-73
2022/05/19 05:11:29;;;;;;;7.20;3.90;;;;;;;10.23;47.97;99550.22;4993149;28;20041;-73
2022/05/19 05:13:55;;;;;;;9.55;3.85;;;;;;;10.30;48.16;99540.94;4992250;28;20030;-73
2022/05/19 05:16:20;;;;;;;7.45;3.80;;;;;;;10.39;48.43;99542.94;4992299;28;20023;-73
2022/05/19 05:18:46;;;;;;;8.82;3.95;;;;;;;10.49;47.89;99544.91;4988335;28;20053;-72
2022/05/19 05:21:13;;;;;;;9.13;4.15;;;;;;;10.56;47.59;99537.25;4990705;28;20085;-73
2022/05/19 05:23:39;;;;;;;7.05;3.58;;;;;;;10.65;47.63;99547.69;4989909;28;20584;-74
2022/05/19 05:26:06;;;;;;;9.00;3.53;;;;;;;10.71;47.40;99550.19;4988289;28;20033;-73
2022/05/19 05:28:32;;;;;;;9.35;3.40;;;;;;;10.79;47.77;99543.34;4990601;28;20509;-73
2022/05/19 05:30:58;;;;;;;6.70;3.55;;;;;;;10.89;47.46;99549.94;4991740;28;20036;-74
2022/05/19 05:33:24;;;;;;;8.48;3.15;;;;;;;10.98;47.48;99548.31;4992198;28;20030;-74
2022/05/19 05:35:49;;;;;;;7.95;3.20;;;;;;;11.04;46.60;99541.72;4992138;28;20033;-74
2022/05/19 05:38:15;;;;;;;5.45;3.17;;;;;;;11.12;46.95;99538.44;4992625;28;20026;-74
2022/05/19 05:40:40;;;;;;;7.50;3.42;;;;;;;11.22;46.88;99548.59;4992786;28;20057;-74
2022/05/19 05:43:12;;;;;;;10.63;3.47;;;;;;;11.31;47.13;99548.91;4992478;28;20109;-74
2022/05/19 05:45:38;;;;;;;8.32;3.90;;;;;;;11.38;46.81;99543.13;4991842;28;20076;-73
2022/05/19 05:48:04;;;;;;;7.78;3.80;;;;;;;11.47;46.36;99544.22;4992139;28;20057;-73
2022/05/19 05:50:30;;;;;;;8.00;4.05;;;;;;;11.58;46.98;99545.88;4992329;28;20036;-73
2022/05/19 05:52:55;;;;;;;6.53;3.33;;;;;;;11.67;46.35;99542.53;4990896;28;20117;-73
2022/05/19 05:55:21;;;;;;;8.68;3.85;;;;;;;11.76;46.29;99538.13;4991678;28;20031;-73
2022/05/19 05:57:46;;;;;;;10.90;3.70;;;;;;;11.83;46.85;99541.44;4992367;28;20172;-73
2022/05/19 06:00:13;;;;;;;8.90;4.18;;;;;;;11.93;45.99;99534.25;4991990;28;20034;-73
2022/05/19 06:02:38;;;;;;;6.95;3.75;;;;;;;12.04;46.75;99544.97;4992353;28;20033;-74
2022/05/19 06:05:04;;;;;;;11.65;4.28;;;;;;;12.14;46.34;99543.31;4991527;28;20030;-73
2022/05/19 06:07:30;;;;;;;9.70;3.70;;;;;;;12.24;46.48;99540.50;4992278;28;20402;-74
2022/05/19 06:09:56;;;;;;;11.07;4.10;;;;;;;12.34;46.24;99545.97;4992267;28;20022;-73
2022/05/19 06:12:23;;;;;;;8.77;3.22;;;;;;;12.43;46.16;99543.44;4992183;28;20033;-74
2022/05/19 06:14:49;;;;;;;7.85;3.67;;;;;;;12.55;45.84;99547.81;4991556;28;20150;-74
2022/05/19 06:17:15;;;;;;;7.97;3.42;;;;;;;12.63;45.64;99536.22;4991624;28;20030;-73
2022/05/19 06:19:41;;;;;;;7.88;3.70;;;;;;;12.74;45.74;99542.47;4991885;28;20023;-73
2022/05/19 06:22:06;;;;;;;9.75;4.03;;;;;;;12.85;45.87;99534.97;4991564;28;20161;-73
2022/05/19 06:24:35;;;;;;;6.68;3.35;;;;;;;12.95;45.42;99534.91;4991499;28;20042;-74
2022/05/19 06:27:00;;;;;;;11.57;3.85;;;;;;;13.06;45.13;99536.50;4991218;28;20522;-74
2022/05/19 06:29:26;;;;;;;6.53;3.60;;;;;;;13.17;45.21;99541.94;4991720;28;20145;-74
2022/05/19 06:31:51;;;;;;;9.07;3.70;;;;;;;13.27;45.20;99541.84;4991436;28;20038;-73
2022/05/19 06:34:17;;;;;;;8.00;3.70;;;;;;;13.40;45.95;99538.44;4991606;28;20026;-74
2022/05/19 06:36:43;;;;;;;10.10;3.80;;;;;;;13.51;45.51;99541.16;4991185;28;20026;-74
2022/05/19 06:39:09;;;;;;;8.73;3.50;;;;;;;13.65;45.32;99544.03;4990579;28;20037;-74
2022/05/19 06:44:18;;;;;;;6.18;2.67;;;;;;;13.95;44.57;99537.41;4991357;28;20054;-73
2022/05/19 06:46:45;;;;;;;5.35;2.65;;;;;;;14.08;44.25;99537.81;4992333;28;20026;-73
2022/05/19 06:49:11;;;;;;;7.03;3.15;;;;;;;14.20;43.89;99540.16;4995412;28;20018;-74
2022/05/19 06:51:36;;;;;;;5.50;2.97;;;;;;;14.32;43.89;99537.78;4995944;28;20022;-74
2022/05/19 06:54:02;;;;;;;6.55;2.60;;;;;;;14.44;43.70;99537.41;4995332;28;20507;-74
2022/05/19 06:56:28;;;;;;;5.07;2.28;;;;;;;14.56;43.22;99534.19;4995227;28;20460;-74
2022/05/19 06:58:54;;;;;;;6.90;2.35;;;;;;;14.68;42.64;99545.59;4995512;28;20070;-74
2022/05/19 07:01:19;;;;;;;5.18;2.30;;;;;;;14.84;42.08;99540.75;4995674;28;20026;-74
2022/05/19 07:03:45;;;;;;;7.82;1.92;;;;;;;14.97;41.43;99532.81;4995408;28;20488;-74
2022/05/19 07:06:11;;;;;;;3.97;2.13;;;;;;;15.08;41.17;99531.56;4995201;28;20097;-74
2022/05/19 07:08:38;;;;;;;4.88;2.20;;;;;;;15.21;41.02;99526.41;4995565;28;20048;-74
2022/05/19 07:11:05;;;;;;;9.00;2.33;;;;;;;15.31;41.21;99527.03;4994049;28;20060;-74
2022/05/19 07:13:31;;;;;;;5.22;1.98;;;;;;;15.42;40.84;99519.38;4993117;28;20030;-74
2022/05/19 07:15:56;;;;;;;9.43;2.20;;;;;;;15.54;40.02;99520.88;4992002;28;20085;-73
2022/05/19 07:18:22;;;;;;;5.43;2.08;;;;;;;15.64;39.73;99520.69;4991012;28;20449;-74
2022/05/19 07:20:48;;;;;;;6.78;2.03;;;;;;;15.75;39.36;99511.06;4996069;28;20467;-73
2022/05/19 07:23:24;;;;;;;4.00;2.08;;;;;;;15.87;38.51;99518.91;4993271;28;20467;-73
2022/05/19 07:25:51;;;;;;;4.07;2.03;;;;;;;16.00;39.00;99522.81;4994991;28;20089;-72
2022/05/19 07:28:21;;;;;;;5.22;2.08;;;;;;;16.10;38.95;99516.25;4993564;28;20043;-73
2022/05/19 07:30:47;;;;;;;4.60;2.08;;;;;;;16.23;38.60;99511.84;4990941;28;20037;-73
2022/05/19 07:33:14;;;;;;;5.05;2.25;;;;;;;16.36;38.93;99510.19;4993860;28;20022;-71
2022/05/19 07:35:41;;;;;;;6.53;2.33;;;;;;;16.47;38.63;99514.38;4989661;28;20085;-75
2022/05/19 07:38:06;;;;;;;7.40;2.30;;;;;;;16.59;37.45;99516.59;4992842;28;20061;-69
2022/05/19 07:40:32;;;;;;;2.97;2.17;;;;;;;16.69;37.26;99514.75;4992183;28;20058;-72
2022/05/19 07:45:42;;;;;;;7.22;2.40;;;;;;;16.84;36.39;99508.88;4991794;28;20113;-70
2022/05/19 07:48:07;;;;;;;3.80;1.92;;;;;;;16.92;36.74;99510.88;4992111;28;20478;-71
2022/05/19 07:50:33;;;;;;;5.93;2.10;;;;;;;17.07;35.38;99518.06;4987538;28;20026;-69
2022/05/19 07:52:59;;;;;;;5.55;2.85;;;;;;;17.19;35.14;99527.75;4992669;28;20084;-70
2022/05/19 07:55:24;;;;;;;9.82;2.63;;;;;;;17.25;35.14;99513.47;4991173;28;20030;-70
2022/05/19 07:57:49;;;;;;;11.32;2.80;;;;;;;17.33;35.25;99516.59;4990157;28;20521;-70
2022/05/19 08:00:15;;;;;;;5.65;2.20;;;;;;;17.41;35.36;99515.84;4992472;28;20037;-70
2022/05/19 08:02:41;;;;;;;6.57;2.58;;;;;;;17.48;35.06;99513.44;4993097;28;20089;-70
2022/05/19 08:05:07;;;;;;;5.40;2.80;;;;;;;17.52;34.74;99506.13;4992415;28;20104;-69
2022/05/19 08:07:33;;;;;;;6.55;2.78;;;;;;;17.60;34.36;99500.97;4991852;28;20041;-69
2022/05/19 08:15:35;;;;;;;7.40;2.90;;;;;;;17.78;33.38;99497.13;4992314;28;20451;-71
2022/05/19 08:18:19;;;;;;;7.32;2.42;;;;;;;17.87;33.23;99511.06;4990826;28;20061;-69
2022/05/19 08:20:51;;;;;;;8.18;2.65;;;;;;;17.98;33.23;99494.94;4994149;28;20027;-70
2022/05/19 08:23:19;;;;;;;4.22;2.25;;;;;;;18.06;32.89;99488.63;4992162;28;20052;-69
2022/05/19 08:25:46;;;;;;;5.38;2.20;;;;;;;18.13;31.14;99480.66;4993251;28;20045;-69
2022/05/19 08:28:14;;;;;;;5.80;2.10;;;;;;;18.14;32.13;99487.00;4991562;28;20046;-69
2022/05/19 08:30:42;;;;;;;5.28;2.00;;;;;;;18.21;31.39;99497.63;4995414;28;20026;-69
2022/05/19 08:33:07;;;;;;;3.55;1.73;;;;;;;18.25;31.04;99501.41;4992855;28;20101;-69
2022/05/19 08:35:33;;;;;;;6.53;2.10;;;;;;;18.30;31.16;99498.50;4991593;28;20032;-70
2022/05/19 08:37:58;;;;;;;7.63;1.92;;;;;;;18.34;30.60;99495.91;4990010;28;20031;-70
2022/05/19 08:40:24;;;;;;;4.40;2.00;;;;;;;18.39;29.89;99490.16;4991357;28;20053;-72
2022/05/19 08:42:56;;;;;;;4.40;1.80;;;;;;;18.44;29.69;99496.41;4991958;28;20065;-71
2022/05/19 08:45:44;;;;;;;4.38;2.25;;;;;;;18.47;30.56;99500.47;4989016;28;20053;-71
2022/05/19 08:48:15;;;;;;;7.35;2.08;;;;;;;18.52;30.68;99494.78;4990947;28;20053;-69
2022/05/19 08:51:04;;;;;;;10.07;2.33;;;;;;;18.60;29.58;99488.41;4990816;28;20037;-69
2022/05/19 08:53:36;;;;;;;4.57;1.60;;;;;;;18.64;29.80;99491.34;4991219;28;20088;-69
2022/05/19 08:56:10;;;;;;;4.28;1.90;;;;;;;18.72;30.53;99487.78;4988531;28;20046;-73
2022/05/19 08:59:05;;;;;;;3.15;1.85;;;;;;;18.85;30.84;99490.72;4991338;28;20029;-71
2022/05/19 09:01:47;;;;;;;8.27;1.98;;;;;;;18.96;30.25;99483.72;4987571;28;20031;-69
2022/05/19 09:04:22;;;;;;;4.22;1.90;;;;;;;18.97;30.73;99482.56;4986307;28;20042;-68
2022/05/19 09:10:11;;;;;;;3.95;2.25;;;;;;;19.06;29.54;99481.75;4989986;28;20165;-70
2022/05/19 09:12:39;;;;;;;5.95;2.10;;;;;;;19.13;30.31;99493.19;4991045;28;20042;-69
2022/05/19 09:15:08;;;;;;;5.07;1.85;;;;;;;19.20;30.48;99482.41;4982648;28;20027;-69
2022/05/19 09:17:37;;;;;;;;;;;;;;;19.30;29.70;99497.91;4979592;28;20026;-70
2022/05/19 09:20:09;;;;;;;3.25;1.50;;;;;;;19.35;29.77;99486.63;4983964;28;19972;-69
2022/05/19 09:22:34;;;;;;;4.45;2.00;;;;;;;19.40;29.48;99482.84;4983122;28;20053;-69
2022/05/19 09:25:06;;;;;;;4.93;1.75;;;;;;;19.46;29.34;99487.09;4981650;28;20058;-69
2022/05/19 09:27:36;;;;;;;3.55;1.60;;;;;;;19.52;29.14;99487.75;4982967;28;20057;-69
2022/05/19 09:30:03;;;;;;;4.00;1.75;;;;;;;19.58;29.23;99484.44;4987466;28;20066;-69
2022/05/19 09:32:35;;;;;;;7.22;1.90;;;;;;;19.66;30.04;99479.19;4987592;28;20030;-70
2022/05/19 09:35:08;;;;;;;3.33;1.75;;;;;;;19.75;29.18;99471.63;4987257;28;20030;-68
2022/05/19 09:37:38;;;;;;;4.35;1.70;;;;;;;19.81;29.43;99466.69;4978780;28;20023;-70
2022/05/19 09:40:10;;;;;;;4.53;1.45;;;;;;;19.89;29.60;99472.25;4983812;28;20029;-77
2022/05/19 09:42:58;;;;;;;3.65;1.80;;;;;;;19.97;28.88;99462.22;4987907;28;20109;-69
2022/05/19 09:45:27;;;;;;;2.90;1.45;;;;;;;19.98;28.97;99458.28;4989622;28;20069;-70
2022/05/19 09:47:57;;;;;;;4.82;1.77;;;;;;;20.03;29.21;99446.16;4987347;28;20081;-70
2022/05/19 09:50:26;;;;;;;11.57;2.03;;;;;;;20.13;29.36;99444.94;4992853;28;20064;-71
2022/05/19 09:53:00;;;;;;;3.63;1.80;;;;;;;20.23;29.40;99444.56;4992977;28;20482;-71
2022/05/19 09:55:25;;;;;;;9.68;1.95;;;;;;;20.32;28.86;99448.13;4982935;28;20367;-69
2022/05/19 09:57:53;;;;;;;4.63;1.80;;;;;;;20.36;28.27;99437.94;4989404;28;20033;-71
2022/05/19 10:00:19;;;;;;;5.72;1.67;;;;;;;20.44;28.86;99444.59;4990387;28;20153;-71
2022/05/19 10:02:50;;;;;;;2.40;1.42;;;;;;;20.50;27.64;99442.41;4989185;28;20113;-72
2022/05/19 10:05:25;;;;;;;3.35;1.77;;;;;;;20.50;27.07;99446.03;4990503;28;20027;-70
2022/05/19 10:07:57;;;;;;;3.25;1.50;;;;;;;20.53;27.56;99437.00;4990610;28;20023;-69
2022/05/19 10:10:29;;;;;;;4.05;1.40;;;;;;;20.56;27.28;99426.31;4991073;28;20042;-71
2022/05/19 10:13:02;;;;;;;4.75;1.48;;;;;;;20.70;27.56;99420.47;4990907;28;20054;-72
2022/05/19 10:15:40;;;;;;;4.25;1.55;;;;;;;20.86;27.60;99426.25;4989820;28;20027;-76
2022/05/19 10:18:15;;;;;;;6.45;1.80;;;;;;;20.97;27.82;99410.75;4990252;28;20080;-70
2022/05/19 10:20:50;;;;;;;4.07;2.00;;;;;;;21.08;28.04;99420.28;4987059;28;20069;-70
2022/05/19 10:23:34;;;;;;;10.98;1.85;;;;;;;21.19;28.08;99411.50;4990708;28;20117;-71
2022/05/19 10:26:06;;;;;;;4.28;1.80;;;;;;;21.31;27.62;99407.91;4990077;28;20038;-71
2022/05/19 10:31:59;;;;;;;2.55;1.45;;;;;;;21.42;28.19;99395.16;4990844;28;20065;-71
2022/05/19 10:34:44;;;;;;;3.40;1.63;;;;;;;21.53;27.98;99401.09;4989968;28;20030;-70
2022/05/19 10:37:35;;;;;;;3.03;1.42;;;;;;;21.60;27.71;99403.31;4988523;28;20112;-70
2022/05/19 10:40:28;;;;;;;4.43;1.60;;;;;;;21.73;27.90;99404.16;4989047;28;20233;-75
2022/05/19 10:43:27;;;;;;;4.68;1.80;;;;;;;21.80;27.58;99410.00;4992250;28;20038;-71
2022/05/19 10:45:56;;;;;;;3.85;1.40;;;;;;;21.85;27.58;99401.34;4985775;28;20041;-79
2022/05/19 10:48:37;;;;;;;4.45;1.63;;;;;;;21.88;27.43;99408.25;4987675;28;20071;-71
2022/05/19 10:51:15;;;;;;;6.03;1.40;;;;;;;21.95;27.49;99403.69;4988536;28;20088;-70
2022/05/19 10:54:12;;;;;;;4.35;1.50;;;;;;;21.98;27.63;99405.78;4986679;28;20505;-70
2022/05/19 10:57:03;;;;;;;3.38;1.88;;;;;;;21.99;27.36;99393.44;4989374;28;20038;-70
2022/05/19 11:00:11;;;;;;;3.47;1.52;;;;;;;22.05;27.69;99396.00;4977361;28;20066;-69
2022/05/19 11:02:51;;;;;;;3.60;1.50;;;;;;;22.11;27.90;99383.44;4989198;28;20034;-70
2022/05/19 11:05:23;;;;;;;4.25;1.70;;;;;;;22.19;27.90;99387.25;4989831;28;20427;-69
2022/05/19 11:08:06;;;;;;;5.93;1.83;;;;;;;22.28;28.23;99380.34;4990937;28;20080;-70
2022/05/19 11:11:01;;;;;;;3.15;1.63;;;;;;;22.43;28.61;99372.41;4989397;28;20038;-70
2022/05/19 11:13:38;;;;;;;3.92;1.50;;;;;;;22.59;28.07;99364.94;4988056;28;20513;-69
2022/05/19 11:16:03;;;;;;;2.95;1.48;;;;;;;22.77;27.28;99373.00;4988337;28;20021;-68
2022/05/19 11:18:50;;;;;;;4.55;1.20;;;;;;;22.82;26.15;99369.16;4988708;28;20046;-69
2022/05/19 11:21:15;;;;;;;3.30;1.20;;;;;;;22.87;26.36;99358.53;4988684;28;20101;-71
2022/05/19 11:23:43;;;;;;;4.78;1.52;;;;;;;22.94;26.27;99362.69;4990088;28;20105;-70
2022/05/19 11:26:38;;;;;;;4.13;1.70;;;;;;;22.98;25.90;99356.00;4994033;28;20037;-69
2022/05/19 11:29:14;;;;;;;3.67;1.95;;;;;;;23.03;25.91;99349.31;4986400;28;20390;-68
2022/05/19 11:32:12;;;;;;;4.70;1.58;;;;;;;23.14;25.83;99350.44;4991062;28;20387;-69
2022/05/19 11:35:18;;;;;;;5.05;1.67;;;;;;;23.17;26.27;99344.13;4993126;28;20080;-68
2022/05/19 11:37:52;;;;;;;4.78;1.48;;;;;;;23.27;26.01;99337.19;4980743;28;20070;-68
2022/05/19 11:40:36;;;;;;;4.05;1.40;;;;;;;23.34;26.06;99339.38;4991687;28;20026;-69
2022/05/19 11:43:24;;;;;;;3.58;1.40;;;;;;;23.45;25.65;99331.25;4991616;28;20026;-69
2022/05/19 11:45:59;;;;;;;3.55;1.48;;;;;;;23.53;25.49;99335.03;4993103;28;20030;-68
2022/05/19 11:57:33;;;;;;;4.50;1.30;;;;;;;23.75;24.71;99311.97;4990387;28;20096;-70
2022/05/19 12:00:00;;;;;;;5.50;1.70;;;;;;;23.77;25.00;99317.19;4988170;28;20026;-74
2022/05/19 12:02:38;;;;;;;2.90;1.42;;;;;;;23.84;25.15;99311.78;4991451;28;20423;-72
2022/05/19 12:05:35;;;;;;;4.32;1.63;;;;;;;23.89;25.04;99303.09;4991023;28;20034;-71
2022/05/19 12:08:13;;;;;;;3.90;1.30;;;;;;;23.91;24.49;99297.94;4993061;28;20040;-73
2022/05/19 12:10:46;;;;;;;4.32;1.52;;;;;;;23.98;24.32;99296.47;4991223;28;20022;-73
2022/05/19 12:13:12;;;;;;;3.58;1.40;;;;;;;24.04;23.74;99298.63;4992763;28;20026;-72
2022/05/19 12:15:51;;;;;;;4.72;1.42;;;;;;;24.11;23.91;99300.78;4992477;28;20391;-72
2022/05/19 12:18:22;;;;;;;6.38;1.52;;;;;;;24.23;24.09;99300.63;4992626;28;20033;-71